sensor_id;sensor_type;location;lat;lon;timestamp;P1;durP1;ratioP1;P2;durP2;ratioP2
15573;SDS011;7888;46.748;8.102;2023-02-03T00:01:34;1.67;;;1.40;;
15573;SDS011;7888;46.748;8.102;2023-02-03T00:04:00;1.73;;;1.30;;
15573;SDS011;7888;46.748;8.102;2023-02-03T00:06:25;3.60;;;1.60;;
15573;SDS011;7888;46.748;8.102;2023-02-03T00:08:52;2.00;;;1.20;;
15573;SDS011;7888;46.748;8.102;2023-02-03T00:11:22;2.03;;;1.20;;
15573;SDS011;7888;46.748;8.102;2023-02-03T00:13:48;1.50;;;1.20;;
15573;SDS011;7888;46.748;8.102;2023-02-03T00:16:13;2.30;;;1.10;;
15573;SDS011;7888;46.748;8.102;2023-02-03T00:18:39;1.77;;;1.23;;
15573;SDS011;7888;46.748;8.102;2023-02-03T00:21:05;2.73;;;1.20;;
15573;SDS011;7888;46.748;8.102;2023-02-03T00:23:31;1.83;;;1.30;;
15573;SDS011;7888;46.748;8.102;2023-02-03T00:25:57;2.37;;;1.30;;
15573;SDS011;7888;46.748;8.102;2023-02-03T00:28:34;2.07;;;1.23;;
15573;SDS011;7888;46.748;8.102;2023-02-03T00:31:00;2.30;;;1.10;;
15573;SDS011;7888;46.748;8.102;2023-02-03T00:33:26;1.43;;;1.00;;
15573;SDS011;7888;46.748;8.102;2023-02-03T00:35:52;1.57;;;0.93;;
15573;SDS011;7888;46.748;8.102;2023-02-03T00:38:17;3.17;;;1.40;;
15573;SDS011;7888;46.748;8.102;2023-02-03T00:40:50;2.43;;;0.97;;
15573;SDS011;7888;46.748;8.102;2023-02-03T00:43:17;2.73;;;1.37;;
15573;SDS011;7888;46.748;8.102;2023-02-03T00:45:43;4.67;;;1.53;;
15573;SDS011;7888;46.748;8.102;2023-02-03T00:48:09;1.70;;;1.20;;
15573;SDS011;7888;46.748;8.102;2023-02-03T00:50:35;1.23;;;1.10;;
15573;SDS011;7888;46.748;8.102;2023-02-03T00:53:01;3.00;;;1.67;;
15573;SDS011;7888;46.748;8.102;2023-02-03T00:55:27;1.50;;;1.40;;
15573;SDS011;7888;46.748;8.102;2023-02-03T00:57:52;2.87;;;1.80;;
15573;SDS011;7888;46.748;8.102;2023-02-03T01:00:18;3.20;;;1.80;;
15573;SDS011;7888;46.748;8.102;2023-02-03T01:02:45;2.93;;;2.10;;
15573;SDS011;7888;46.748;8.102;2023-02-03T01:05:11;2.43;;;1.80;;
15573;SDS011;7888;46.748;8.102;2023-02-03T01:07:37;3.50;;;1.70;;
15573;SDS011;7888;46.748;8.102;2023-02-03T01:10:03;2.40;;;1.73;;
15573;SDS011;7888;46.748;8.102;2023-02-03T01:12:30;3.43;;;1.70;;
15573;SDS011;7888;46.748;8.102;2023-02-03T01:14:57;1.90;;;1.70;;
15573;SDS011;7888;46.748;8.102;2023-02-03T01:17:23;2.27;;;1.60;;
15573;SDS011;7888;46.748;8.102;2023-02-03T01:19:50;3.53;;;2.10;;
15573;SDS011;7888;46.748;8.102;2023-02-03T01:22:16;2.93;;;1.50;;
15573;SDS011;7888;46.748;8.102;2023-02-03T01:24:43;3.63;;;1.60;;
15573;SDS011;7888;46.748;8.102;2023-02-03T01:27:09;2.20;;;1.40;;
15573;SDS011;7888;46.748;8.102;2023-02-03T01:29:34;1.97;;;1.40;;
15573;SDS011;7888;46.748;8.102;2023-02-03T01:32:00;2.30;;;1.40;;
15573;SDS011;7888;46.748;8.102;2023-02-03T01:34:26;1.97;;;1.30;;
15573;SDS011;7888;46.748;8.102;2023-02-03T01:36:52;2.97;;;1.43;;
15573;SDS011;7888;46.748;8.102;2023-02-03T01:39:18;3.27;;;1.27;;
15573;SDS011;7888;46.748;8.102;2023-02-03T01:41:44;1.63;;;1.30;;
15573;SDS011;7888;46.748;8.102;2023-02-03T01:50:16;1.87;;;1.20;;
15573;SDS011;7888;46.748;8.102;2023-02-03T01:52:52;2.93;;;1.30;;
15573;SDS011;7888;46.748;8.102;2023-02-03T01:55:38;1.93;;;1.70;;
15573;SDS011;7888;46.748;8.102;2023-02-03T01:58:17;1.80;;;1.20;;
15573;SDS011;7888;46.748;8.102;2023-02-03T02:00:52;1.90;;;1.40;;
15573;SDS011;7888;46.748;8.102;2023-02-03T02:03:22;3.13;;;1.60;;
15573;SDS011;7888;46.748;8.102;2023-02-03T02:06:05;3.87;;;1.43;;
15573;SDS011;7888;46.748;8.102;2023-02-03T02:08:35;1.80;;;1.10;;
15573;SDS011;7888;46.748;8.102;2023-02-03T02:11:03;2.40;;;1.30;;
15573;SDS011;7888;46.748;8.102;2023-02-03T02:13:31;1.87;;;1.33;;
15573;SDS011;7888;46.748;8.102;2023-02-03T02:16:08;4.10;;;1.40;;
15573;SDS011;7888;46.748;8.102;2023-02-03T02:19:21;2.30;;;1.20;;
15573;SDS011;7888;46.748;8.102;2023-02-03T02:22:25;1.73;;;1.20;;
15573;SDS011;7888;46.748;8.102;2023-02-03T02:31:42;1.87;;;1.40;;
15573;SDS011;7888;46.748;8.102;2023-02-03T02:40:35;2.97;;;1.47;;
15573;SDS011;7888;46.748;8.102;2023-02-03T02:46:00;3.47;;;1.50;;
15573;SDS011;7888;46.748;8.102;2023-02-03T02:48:51;3.93;;;1.30;;
15573;SDS011;7888;46.748;8.102;2023-02-03T02:51:26;3.07;;;1.30;;
15573;SDS011;7888;46.748;8.102;2023-02-03T02:53:56;2.50;;;1.60;;
15573;SDS011;7888;46.748;8.102;2023-02-03T02:56:32;1.53;;;1.33;;
15573;SDS011;7888;46.748;8.102;2023-02-03T02:59:01;1.60;;;1.10;;
15573;SDS011;7888;46.748;8.102;2023-02-03T03:01:30;1.77;;;1.20;;
15573;SDS011;7888;46.748;8.102;2023-02-03T03:03:56;2.30;;;1.50;;
15573;SDS011;7888;46.748;8.102;2023-02-03T03:06:33;2.57;;;1.40;;
15573;SDS011;7888;46.748;8.102;2023-02-03T03:09:06;1.83;;;1.23;;
15573;SDS011;7888;46.748;8.102;2023-02-03T03:11:53;1.50;;;1.30;;
15573;SDS011;7888;46.748;8.102;2023-02-03T03:14:50;2.53;;;1.33;;
15573;SDS011;7888;46.748;8.102;2023-02-03T03:17:47;2.03;;;1.10;;
15573;SDS011;7888;46.748;8.102;2023-02-03T03:20:40;3.23;;;1.27;;
15573;SDS011;7888;46.748;8.102;2023-02-03T03:23:10;3.73;;;1.97;;
15573;SDS011;7888;46.748;8.102;2023-02-03T03:25:59;2.13;;;1.20;;
15573;SDS011;7888;46.748;8.102;2023-02-03T03:28:59;2.30;;;1.30;;
15573;SDS011;7888;46.748;8.102;2023-02-03T03:31:41;2.97;;;1.67;;
15573;SDS011;7888;46.748;8.102;2023-02-03T03:34:10;2.10;;;1.30;;
15573;SDS011;7888;46.748;8.102;2023-02-03T03:39:12;4.00;;;1.90;;
15573;SDS011;7888;46.748;8.102;2023-02-03T03:45:15;1.83;;;1.53;;
15573;SDS011;7888;46.748;8.102;2023-02-03T03:50:46;4.43;;;1.90;;
15573;SDS011;7888;46.748;8.102;2023-02-03T03:53:23;2.13;;;1.60;;
15573;SDS011;7888;46.748;8.102;2023-02-03T03:55:54;5.10;;;1.70;;
15573;SDS011;7888;46.748;8.102;2023-02-03T03:58:25;2.13;;;1.40;;
15573;SDS011;7888;46.748;8.102;2023-02-03T04:00:57;3.03;;;1.80;;
15573;SDS011;7888;46.748;8.102;2023-02-03T04:03:32;2.77;;;1.80;;
15573;SDS011;7888;46.748;8.102;2023-02-03T04:06:27;2.70;;;1.83;;
15573;SDS011;7888;46.748;8.102;2023-02-03T04:08:53;2.33;;;1.80;;
15573;SDS011;7888;46.748;8.102;2023-02-03T04:11:19;2.50;;;1.80;;
15573;SDS011;7888;46.748;8.102;2023-02-03T04:14:04;3.37;;;1.53;;
15573;SDS011;7888;46.748;8.102;2023-02-03T04:16:29;3.10;;;1.63;;
15573;SDS011;7888;46.748;8.102;2023-02-03T04:18:55;2.13;;;1.53;;
15573;SDS011;7888;46.748;8.102;2023-02-03T04:21:21;2.77;;;1.50;;
15573;SDS011;7888;46.748;8.102;2023-02-03T04:23:47;2.47;;;2.00;;
15573;SDS011;7888;46.748;8.102;2023-02-03T04:26:14;1.70;;;1.60;;
15573;SDS011;7888;46.748;8.102;2023-02-03T04:28:40;2.67;;;1.90;;
15573;SDS011;7888;46.748;8.102;2023-02-03T04:31:07;2.07;;;1.53;;
15573;SDS011;7888;46.748;8.102;2023-02-03T04:33:33;7.63;;;2.03;;
15573;SDS011;7888;46.748;8.102;2023-02-03T04:35:59;1.93;;;1.40;;
15573;SDS011;7888;46.748;8.102;2023-02-03T04:38:25;1.93;;;1.57;;
15573;SDS011;7888;46.748;8.102;2023-02-03T04:40:50;2.20;;;1.70;;
15573;SDS011;7888;46.748;8.102;2023-02-03T04:43:16;2.60;;;1.60;;
15573;SDS011;7888;46.748;8.102;2023-02-03T04:45:42;2.83;;;1.40;;
15573;SDS011;7888;46.748;8.102;2023-02-03T04:48:07;1.97;;;1.40;;
15573;SDS011;7888;46.748;8.102;2023-02-03T04:50:33;2.47;;;1.60;;
15573;SDS011;7888;46.748;8.102;2023-02-03T04:52:59;1.97;;;1.50;;
15573;SDS011;7888;46.748;8.102;2023-02-03T04:55:25;3.07;;;1.50;;
15573;SDS011;7888;46.748;8.102;2023-02-03T04:57:55;2.63;;;1.77;;
15573;SDS011;7888;46.748;8.102;2023-02-03T05:00:23;2.90;;;1.50;;
15573;SDS011;7888;46.748;8.102;2023-02-03T05:02:49;2.70;;;1.20;;
15573;SDS011;7888;46.748;8.102;2023-02-03T05:05:15;1.90;;;1.33;;
15573;SDS011;7888;46.748;8.102;2023-02-03T05:07:41;3.17;;;1.40;;
15573;SDS011;7888;46.748;8.102;2023-02-03T05:10:07;2.60;;;1.53;;
15573;SDS011;7888;46.748;8.102;2023-02-03T05:12:34;3.83;;;1.80;;
15573;SDS011;7888;46.748;8.102;2023-02-03T05:15:00;3.27;;;1.93;;
15573;SDS011;7888;46.748;8.102;2023-02-03T05:17:26;5.00;;;2.80;;
15573;SDS011;7888;46.748;8.102;2023-02-03T05:19:51;5.83;;;2.97;;
15573;SDS011;7888;46.748;8.102;2023-02-03T05:22:17;3.50;;;2.53;;
15573;SDS011;7888;46.748;8.102;2023-02-03T05:24:43;3.57;;;1.83;;
15573;SDS011;7888;46.748;8.102;2023-02-03T05:27:09;2.60;;;1.80;;
15573;SDS011;7888;46.748;8.102;2023-02-03T05:29:35;2.90;;;1.53;;
15573;SDS011;7888;46.748;8.102;2023-02-03T05:32:00;2.00;;;1.60;;
15573;SDS011;7888;46.748;8.102;2023-02-03T05:34:26;2.53;;;1.60;;
15573;SDS011;7888;46.748;8.102;2023-02-03T05:36:52;1.90;;;1.30;;
15573;SDS011;7888;46.748;8.102;2023-02-03T05:39:18;2.13;;;1.50;;
15573;SDS011;7888;46.748;8.102;2023-02-03T05:41:43;1.73;;;1.53;;
15573;SDS011;7888;46.748;8.102;2023-02-03T05:44:19;2.43;;;1.90;;
15573;SDS011;7888;46.748;8.102;2023-02-03T05:46:49;1.83;;;1.57;;
15573;SDS011;7888;46.748;8.102;2023-02-03T05:49:17;2.20;;;1.73;;
15573;SDS011;7888;46.748;8.102;2023-02-03T05:51:44;2.07;;;1.30;;
15573;SDS011;7888;46.748;8.102;2023-02-03T05:54:11;2.53;;;1.70;;
15573;SDS011;7888;46.748;8.102;2023-02-03T05:56:37;8.07;;;4.77;;
15573;SDS011;7888;46.748;8.102;2023-02-03T05:59:03;24.17;;;11.23;;
15573;SDS011;7888;46.748;8.102;2023-02-03T06:01:30;34.80;;;15.67;;
15573;SDS011;7888;46.748;8.102;2023-02-03T06:03:57;39.67;;;17.30;;
15573;SDS011;7888;46.748;8.102;2023-02-03T06:06:24;47.80;;;19.03;;
15573;SDS011;7888;46.748;8.102;2023-02-03T06:08:51;43.70;;;22.33;;
15573;SDS011;7888;46.748;8.102;2023-02-03T06:11:20;60.67;;;34.83;;
15573;SDS011;7888;46.748;8.102;2023-02-03T06:13:48;50.20;;;29.83;;
15573;SDS011;7888;46.748;8.102;2023-02-03T06:16:15;25.63;;;16.50;;
15573;SDS011;7888;46.748;8.102;2023-02-03T06:18:41;12.97;;;7.63;;
15573;SDS011;7888;46.748;8.102;2023-02-03T06:21:07;7.83;;;4.93;;
15573;SDS011;7888;46.748;8.102;2023-02-03T06:23:33;6.53;;;3.63;;
15573;SDS011;7888;46.748;8.102;2023-02-03T06:25:58;6.40;;;3.77;;
15573;SDS011;7888;46.748;8.102;2023-02-03T06:28:24;7.77;;;4.43;;
15573;SDS011;7888;46.748;8.102;2023-02-03T06:30:51;4.70;;;3.67;;
15573;SDS011;7888;46.748;8.102;2023-02-03T06:33:20;6.40;;;4.60;;
15573;SDS011;7888;46.748;8.102;2023-02-03T06:35:45;10.43;;;6.93;;
15573;SDS011;7888;46.748;8.102;2023-02-03T06:38:11;11.83;;;7.60;;
15573;SDS011;7888;46.748;8.102;2023-02-03T06:40:37;10.73;;;6.43;;
15573;SDS011;7888;46.748;8.102;2023-02-03T06:43:03;9.47;;;5.20;;
15573;SDS011;7888;46.748;8.102;2023-02-03T06:45:29;4.50;;;4.03;;
15573;SDS011;7888;46.748;8.102;2023-02-03T06:47:55;5.37;;;3.30;;
15573;SDS011;7888;46.748;8.102;2023-02-03T06:50:21;4.73;;;3.20;;
15573;SDS011;7888;46.748;8.102;2023-02-03T06:52:48;3.97;;;2.57;;
15573;SDS011;7888;46.748;8.102;2023-02-03T06:55:14;7.10;;;3.40;;
15573;SDS011;7888;46.748;8.102;2023-02-03T06:57:44;7.63;;;3.70;;
15573;SDS011;7888;46.748;8.102;2023-02-03T07:00:12;5.60;;;4.20;;
15573;SDS011;7888;46.748;8.102;2023-02-03T07:02:40;3.60;;;2.77;;
15573;SDS011;7888;46.748;8.102;2023-02-03T07:05:06;3.07;;;2.10;;
15573;SDS011;7888;46.748;8.102;2023-02-03T07:07:32;2.30;;;2.00;;
15573;SDS011;7888;46.748;8.102;2023-02-03T07:09:59;3.87;;;2.70;;
15573;SDS011;7888;46.748;8.102;2023-02-03T07:12:26;3.33;;;1.93;;
15573;SDS011;7888;46.748;8.102;2023-02-03T07:14:52;3.90;;;2.20;;
15573;SDS011;7888;46.748;8.102;2023-02-03T07:17:18;3.40;;;2.20;;
15573;SDS011;7888;46.748;8.102;2023-02-03T07:19:44;3.30;;;2.50;;
15573;SDS011;7888;46.748;8.102;2023-02-03T07:22:11;4.87;;;2.70;;
15573;SDS011;7888;46.748;8.102;2023-02-03T07:24:37;3.40;;;2.83;;
15573;SDS011;7888;46.748;8.102;2023-02-03T07:27:02;7.20;;;4.20;;
15573;SDS011;7888;46.748;8.102;2023-02-03T07:29:28;7.47;;;4.70;;
15573;SDS011;7888;46.748;8.102;2023-02-03T07:31:54;7.93;;;7.13;;
15573;SDS011;7888;46.748;8.102;2023-02-03T07:34:20;11.50;;;7.97;;
15573;SDS011;7888;46.748;8.102;2023-02-03T07:36:46;6.17;;;4.07;;
15573;SDS011;7888;46.748;8.102;2023-02-03T07:39:12;5.70;;;3.60;;
15573;SDS011;7888;46.748;8.102;2023-02-03T07:41:38;3.97;;;2.80;;
15573;SDS011;7888;46.748;8.102;2023-02-03T07:44:04;4.80;;;2.50;;
15573;SDS011;7888;46.748;8.102;2023-02-03T07:46:30;5.07;;;3.00;;
15573;SDS011;7888;46.748;8.102;2023-02-03T07:48:55;4.93;;;2.93;;
15573;SDS011;7888;46.748;8.102;2023-02-03T07:51:21;5.53;;;3.40;;
15573;SDS011;7888;46.748;8.102;2023-02-03T07:53:47;3.67;;;2.83;;
15573;SDS011;7888;46.748;8.102;2023-02-03T07:56:13;5.57;;;4.03;;
15573;SDS011;7888;46.748;8.102;2023-02-03T07:58:39;6.93;;;3.83;;
15573;SDS011;7888;46.748;8.102;2023-02-03T08:01:09;4.50;;;2.87;;
15573;SDS011;7888;46.748;8.102;2023-02-03T08:03:40;3.67;;;2.63;;
15573;SDS011;7888;46.748;8.102;2023-02-03T08:06:06;4.17;;;2.53;;
15573;SDS011;7888;46.748;8.102;2023-02-03T08:08:32;4.00;;;3.23;;
15573;SDS011;7888;46.748;8.102;2023-02-03T08:10:59;3.70;;;2.50;;
15573;SDS011;7888;46.748;8.102;2023-02-03T08:13:25;4.27;;;2.70;;
15573;SDS011;7888;46.748;8.102;2023-02-03T08:15:51;6.10;;;3.07;;
15573;SDS011;7888;46.748;8.102;2023-02-03T08:18:17;8.47;;;5.67;;
15573;SDS011;7888;46.748;8.102;2023-02-03T08:20:45;3.90;;;2.70;;
15573;SDS011;7888;46.748;8.102;2023-02-03T08:23:12;4.97;;;2.40;;
15573;SDS011;7888;46.748;8.102;2023-02-03T08:25:38;2.27;;;2.07;;
15573;SDS011;7888;46.748;8.102;2023-02-03T08:28:04;5.27;;;2.40;;
15573;SDS011;7888;46.748;8.102;2023-02-03T08:30:29;4.37;;;2.40;;
15573;SDS011;7888;46.748;8.102;2023-02-03T08:32:56;3.37;;;2.40;;
15573;SDS011;7888;46.748;8.102;2023-02-03T08:35:22;3.27;;;2.73;;
15573;SDS011;7888;46.748;8.102;2023-02-03T08:37:48;2.70;;;2.20;;
15573;SDS011;7888;46.748;8.102;2023-02-03T08:40:14;3.60;;;2.33;;
15573;SDS011;7888;46.748;8.102;2023-02-03T08:42:40;3.30;;;2.07;;
15573;SDS011;7888;46.748;8.102;2023-02-03T08:45:06;3.10;;;1.87;;
15573;SDS011;7888;46.748;8.102;2023-02-03T08:47:33;1.93;;;1.83;;
15573;SDS011;7888;46.748;8.102;2023-02-03T08:50:00;2.47;;;1.70;;
15573;SDS011;7888;46.748;8.102;2023-02-03T08:52:28;3.17;;;1.77;;
15573;SDS011;7888;46.748;8.102;2023-02-03T08:54:54;4.87;;;1.90;;
15573;SDS011;7888;46.748;8.102;2023-02-03T08:57:20;2.30;;;1.93;;
15573;SDS011;7888;46.748;8.102;2023-02-03T08:59:46;3.33;;;1.70;;
15573;SDS011;7888;46.748;8.102;2023-02-03T09:02:15;3.07;;;1.80;;
15573;SDS011;7888;46.748;8.102;2023-02-03T09:04:44;3.97;;;1.80;;
15573;SDS011;7888;46.748;8.102;2023-02-03T09:07:11;9.63;;;2.30;;
15573;SDS011;7888;46.748;8.102;2023-02-03T09:09:37;2.50;;;1.70;;
15573;SDS011;7888;46.748;8.102;2023-02-03T09:12:06;3.40;;;1.80;;
15573;SDS011;7888;46.748;8.102;2023-02-03T09:14:34;3.23;;;1.50;;
15573;SDS011;7888;46.748;8.102;2023-02-03T09:17:01;2.63;;;1.73;;
15573;SDS011;7888;46.748;8.102;2023-02-03T09:19:29;2.57;;;1.67;;
15573;SDS011;7888;46.748;8.102;2023-02-03T09:21:55;2.20;;;1.50;;
15573;SDS011;7888;46.748;8.102;2023-02-03T09:24:21;3.13;;;1.90;;
15573;SDS011;7888;46.748;8.102;2023-02-03T09:26:48;3.10;;;1.90;;
15573;SDS011;7888;46.748;8.102;2023-02-03T09:29:14;2.27;;;1.87;;
15573;SDS011;7888;46.748;8.102;2023-02-03T09:31:40;6.57;;;2.10;;
15573;SDS011;7888;46.748;8.102;2023-02-03T09:34:06;3.43;;;2.33;;
15573;SDS011;7888;46.748;8.102;2023-02-03T09:36:32;4.27;;;2.27;;
15573;SDS011;7888;46.748;8.102;2023-02-03T09:38:58;4.00;;;1.90;;
15573;SDS011;7888;46.748;8.102;2023-02-03T09:47:18;2.83;;;2.00;;
15573;SDS011;7888;46.748;8.102;2023-02-03T09:49:52;2.60;;;1.90;;
15573;SDS011;7888;46.748;8.102;2023-02-03T09:52:35;2.73;;;1.90;;
15573;SDS011;7888;46.748;8.102;2023-02-03T09:58:01;2.53;;;1.70;;
15573;SDS011;7888;46.748;8.102;2023-02-03T10:03:42;3.00;;;2.00;;
15573;SDS011;7888;46.748;8.102;2023-02-03T10:11:53;2.40;;;1.77;;
15573;SDS011;7888;46.748;8.102;2023-02-03T10:22:55;1.83;;;1.47;;
15573;SDS011;7888;46.748;8.102;2023-02-03T10:25:39;2.93;;;1.53;;
15573;SDS011;7888;46.748;8.102;2023-02-03T10:28:18;2.60;;;1.40;;
15573;SDS011;7888;46.748;8.102;2023-02-03T10:30:48;2.40;;;1.67;;
15573;SDS011;7888;46.748;8.102;2023-02-03T10:33:26;1.87;;;1.40;;
15573;SDS011;7888;46.748;8.102;2023-02-03T10:35:58;3.93;;;2.00;;
15573;SDS011;7888;46.748;8.102;2023-02-03T10:38:57;2.73;;;1.67;;
15573;SDS011;7888;46.748;8.102;2023-02-03T10:41:32;2.83;;;1.77;;
15573;SDS011;7888;46.748;8.102;2023-02-03T10:43:59;2.70;;;1.30;;
15573;SDS011;7888;46.748;8.102;2023-02-03T10:46:34;3.00;;;1.60;;
15573;SDS011;7888;46.748;8.102;2023-02-03T10:49:03;3.10;;;1.67;;
15573;SDS011;7888;46.748;8.102;2023-02-03T10:51:34;2.57;;;1.50;;
15573;SDS011;7888;46.748;8.102;2023-02-03T10:54:30;1.80;;;1.47;;
15573;SDS011;7888;46.748;8.102;2023-02-03T10:57:00;1.50;;;1.13;;
15573;SDS011;7888;46.748;8.102;2023-02-03T10:59:32;2.10;;;1.10;;
15573;SDS011;7888;46.748;8.102;2023-02-03T11:02:09;2.27;;;1.20;;
15573;SDS011;7888;46.748;8.102;2023-02-03T11:04:46;2.00;;;0.90;;
15573;SDS011;7888;46.748;8.102;2023-02-03T11:07:22;4.07;;;1.40;;
15573;SDS011;7888;46.748;8.102;2023-02-03T11:09:51;2.10;;;1.27;;
15573;SDS011;7888;46.748;8.102;2023-02-03T11:12:17;2.47;;;1.17;;
15573;SDS011;7888;46.748;8.102;2023-02-03T11:14:47;2.13;;;1.23;;
15573;SDS011;7888;46.748;8.102;2023-02-03T11:17:16;2.27;;;1.30;;
15573;SDS011;7888;46.748;8.102;2023-02-03T11:19:45;2.57;;;1.40;;
15573;SDS011;7888;46.748;8.102;2023-02-03T11:22:24;4.93;;;1.37;;
15573;SDS011;7888;46.748;8.102;2023-02-03T11:24:53;2.37;;;1.30;;
15573;SDS011;7888;46.748;8.102;2023-02-03T11:27:20;2.50;;;1.30;;
15573;SDS011;7888;46.748;8.102;2023-02-03T11:29:49;1.30;;;1.10;;
15573;SDS011;7888;46.748;8.102;2023-02-03T11:32:34;1.40;;;1.13;;
15573;SDS011;7888;46.748;8.102;2023-02-03T11:35:24;3.23;;;1.30;;
15573;SDS011;7888;46.748;8.102;2023-02-03T11:37:57;2.73;;;1.20;;
15573;SDS011;7888;46.748;8.102;2023-02-03T11:40:29;1.60;;;1.03;;
15573;SDS011;7888;46.748;8.102;2023-02-03T11:42:59;1.33;;;0.90;;
15573;SDS011;7888;46.748;8.102;2023-02-03T11:45:39;1.53;;;1.10;;
15573;SDS011;7888;46.748;8.102;2023-02-03T11:54:15;2.00;;;1.03;;
15573;SDS011;7888;46.748;8.102;2023-02-03T12:00:14;2.30;;;1.33;;
15573;SDS011;7888;46.748;8.102;2023-02-03T12:03:09;2.87;;;1.20;;
15573;SDS011;7888;46.748;8.102;2023-02-03T12:08:52;2.40;;;1.30;;
15573;SDS011;7888;46.748;8.102;2023-02-03T12:17:11;1.70;;;1.20;;
15573;SDS011;7888;46.748;8.102;2023-02-03T12:22:49;2.37;;;1.40;;
15573;SDS011;7888;46.748;8.102;2023-02-03T12:28:44;2.13;;;1.10;;
15573;SDS011;7888;46.748;8.102;2023-02-03T12:34:23;1.57;;;0.97;;
15573;SDS011;7888;46.748;8.102;2023-02-03T12:36:57;0.80;;;0.70;;
15573;SDS011;7888;46.748;8.102;2023-02-03T12:42:40;2.87;;;1.00;;
15573;SDS011;7888;46.748;8.102;2023-02-03T12:45:24;2.03;;;0.93;;
15573;SDS011;7888;46.748;8.102;2023-02-03T12:48:03;2.83;;;1.00;;
15573;SDS011;7888;46.748;8.102;2023-02-03T12:50:43;1.50;;;1.00;;
15573;SDS011;7888;46.748;8.102;2023-02-03T12:53:17;1.40;;;1.10;;
15573;SDS011;7888;46.748;8.102;2023-02-03T13:01:21;2.93;;;0.83;;
15573;SDS011;7888;46.748;8.102;2023-02-03T13:06:53;1.40;;;0.90;;
15573;SDS011;7888;46.748;8.102;2023-02-03T13:09:47;2.57;;;0.93;;
15573;SDS011;7888;46.748;8.102;2023-02-03T13:18:11;1.87;;;1.10;;
15573;SDS011;7888;46.748;8.102;2023-02-03T13:20:56;6.07;;;1.30;;
15573;SDS011;7888;46.748;8.102;2023-02-03T13:23:22;3.33;;;1.20;;
15573;SDS011;7888;46.748;8.102;2023-02-03T13:31:56;0.93;;;0.90;;
15573;SDS011;7888;46.748;8.102;2023-02-03T13:37:47;3.73;;;1.57;;
15573;SDS011;7888;46.748;8.102;2023-02-03T13:43:04;3.93;;;1.50;;
15573;SDS011;7888;46.748;8.102;2023-02-03T13:45:54;2.13;;;1.10;;
15573;SDS011;7888;46.748;8.102;2023-02-03T13:48:23;2.93;;;1.13;;
15573;SDS011;7888;46.748;8.102;2023-02-03T13:51:13;1.87;;;1.20;;
15573;SDS011;7888;46.748;8.102;2023-02-03T13:53:47;1.73;;;1.20;;
15573;SDS011;7888;46.748;8.102;2023-02-03T13:58:57;1.30;;;0.80;;
15573;SDS011;7888;46.748;8.102;2023-02-03T14:01:56;2.60;;;0.97;;
15573;SDS011;7888;46.748;8.102;2023-02-03T14:18:00;2.67;;;1.10;;
15573;SDS011;7888;46.748;8.102;2023-02-03T14:20:41;1.10;;;0.70;;
15573;SDS011;7888;46.748;8.102;2023-02-03T14:23:15;2.10;;;0.80;;
15573;SDS011;7888;46.748;8.102;2023-02-03T14:25:53;3.30;;;1.03;;
15573;SDS011;7888;46.748;8.102;2023-02-03T14:28:29;1.73;;;0.80;;
15573;SDS011;7888;46.748;8.102;2023-02-03T14:31:21;1.77;;;0.90;;
15573;SDS011;7888;46.748;8.102;2023-02-03T14:34:08;3.10;;;1.13;;
15573;SDS011;7888;46.748;8.102;2023-02-03T14:36:40;2.73;;;0.97;;
15573;SDS011;7888;46.748;8.102;2023-02-03T14:41:48;2.50;;;1.10;;
15573;SDS011;7888;46.748;8.102;2023-02-03T14:47:37;1.37;;;0.97;;
15573;SDS011;7888;46.748;8.102;2023-02-03T15:02:16;2.80;;;1.43;;
15573;SDS011;7888;46.748;8.102;2023-02-03T15:05:38;2.43;;;1.77;;
15573;SDS011;7888;46.748;8.102;2023-02-03T15:07:44;3.27;;;2.03;;
15573;SDS011;7888;46.748;8.102;2023-02-03T15:12:51;1.43;;;1.00;;
15573;SDS011;7888;46.748;8.102;2023-02-03T15:15:23;1.70;;;1.10;;
15573;SDS011;7888;46.748;8.102;2023-02-03T15:18:11;1.73;;;0.80;;
15573;SDS011;7888;46.748;8.102;2023-02-03T15:20:52;4.60;;;1.17;;
15573;SDS011;7888;46.748;8.102;2023-02-03T15:23:24;2.80;;;1.03;;
15573;SDS011;7888;46.748;8.102;2023-02-03T15:25:57;4.03;;;1.33;;
15573;SDS011;7888;46.748;8.102;2023-02-03T15:28:26;2.73;;;1.20;;
15573;SDS011;7888;46.748;8.102;2023-02-03T15:33:26;1.90;;;0.90;;
15573;SDS011;7888;46.748;8.102;2023-02-03T15:35:58;2.63;;;1.00;;
15573;SDS011;7888;46.748;8.102;2023-02-03T15:38:39;1.50;;;0.70;;
15573;SDS011;7888;46.748;8.102;2023-02-03T15:41:17;7.70;;;1.63;;
15573;SDS011;7888;46.748;8.102;2023-02-03T15:43:50;4.80;;;1.57;;
15573;SDS011;7888;46.748;8.102;2023-02-03T15:46:29;4.23;;;1.20;;
15573;SDS011;7888;46.748;8.102;2023-02-03T15:49:10;2.80;;;1.03;;
15573;SDS011;7888;46.748;8.102;2023-02-03T15:54:22;2.20;;;1.07;;
15573;SDS011;7888;46.748;8.102;2023-02-03T15:57:06;2.83;;;1.30;;
15573;SDS011;7888;46.748;8.102;2023-02-03T16:03:15;2.77;;;1.10;;
15573;SDS011;7888;46.748;8.102;2023-02-03T16:06:07;1.40;;;1.10;;
15573;SDS011;7888;46.748;8.102;2023-02-03T16:08:51;2.43;;;1.20;;
15573;SDS011;7888;46.748;8.102;2023-02-03T16:11:37;5.00;;;1.47;;
15573;SDS011;7888;46.748;8.102;2023-02-03T16:14:10;3.30;;;1.60;;
15573;SDS011;7888;46.748;8.102;2023-02-03T16:16:57;3.27;;;1.10;;
15573;SDS011;7888;46.748;8.102;2023-02-03T16:19:23;2.30;;;0.90;;
15573;SDS011;7888;46.748;8.102;2023-02-03T16:21:54;2.43;;;1.10;;
15573;SDS011;7888;46.748;8.102;2023-02-03T16:24:37;1.97;;;1.10;;
15573;SDS011;7888;46.748;8.102;2023-02-03T16:29:53;2.57;;;1.37;;
15573;SDS011;7888;46.748;8.102;2023-02-03T16:33:00;3.37;;;1.50;;
15573;SDS011;7888;46.748;8.102;2023-02-03T16:35:54;4.13;;;1.47;;
15573;SDS011;7888;46.748;8.102;2023-02-03T16:38:47;3.77;;;1.37;;
15573;SDS011;7888;46.748;8.102;2023-02-03T16:41:33;3.63;;;1.30;;
15573;SDS011;7888;46.748;8.102;2023-02-03T16:44:19;3.47;;;1.87;;
15573;SDS011;7888;46.748;8.102;2023-02-03T16:47:23;2.50;;;1.77;;
15573;SDS011;7888;46.748;8.102;2023-02-03T16:50:13;5.00;;;1.40;;
15573;SDS011;7888;46.748;8.102;2023-02-03T16:53:05;2.03;;;1.27;;
15573;SDS011;7888;46.748;8.102;2023-02-03T16:55:37;1.90;;;1.00;;
15573;SDS011;7888;46.748;8.102;2023-02-03T16:58:03;2.03;;;1.30;;
15573;SDS011;7888;46.748;8.102;2023-02-03T17:00:28;1.70;;;1.30;;
15573;SDS011;7888;46.748;8.102;2023-02-03T17:02:54;3.87;;;2.30;;
15573;SDS011;7888;46.748;8.102;2023-02-03T17:05:20;5.47;;;3.17;;
15573;SDS011;7888;46.748;8.102;2023-02-03T17:07:46;7.90;;;4.70;;
15573;SDS011;7888;46.748;8.102;2023-02-03T17:10:12;9.60;;;6.03;;
15573;SDS011;7888;46.748;8.102;2023-02-03T17:12:38;11.73;;;7.97;;
15573;SDS011;7888;46.748;8.102;2023-02-03T17:15:04;12.63;;;7.50;;
15573;SDS011;7888;46.748;8.102;2023-02-03T17:17:31;10.57;;;6.87;;
15573;SDS011;7888;46.748;8.102;2023-02-03T17:19:57;12.37;;;7.13;;
15573;SDS011;7888;46.748;8.102;2023-02-03T17:22:23;8.43;;;5.97;;
15573;SDS011;7888;46.748;8.102;2023-02-03T17:24:51;9.33;;;6.77;;
15573;SDS011;7888;46.748;8.102;2023-02-03T17:27:17;6.83;;;5.70;;
15573;SDS011;7888;46.748;8.102;2023-02-03T17:29:44;7.57;;;5.13;;
15573;SDS011;7888;46.748;8.102;2023-02-03T17:32:10;6.27;;;2.97;;
15573;SDS011;7888;46.748;8.102;2023-02-03T17:34:39;3.43;;;2.00;;
15573;SDS011;7888;46.748;8.102;2023-02-03T17:37:05;1.80;;;1.37;;
15573;SDS011;7888;46.748;8.102;2023-02-03T17:39:31;3.03;;;1.37;;
15573;SDS011;7888;46.748;8.102;2023-02-03T17:41:57;2.13;;;1.30;;
15573;SDS011;7888;46.748;8.102;2023-02-03T17:44:23;2.10;;;1.67;;
15573;SDS011;7888;46.748;8.102;2023-02-03T17:46:49;1.80;;;1.03;;
15573;SDS011;7888;46.748;8.102;2023-02-03T17:49:15;2.37;;;1.40;;
15573;SDS011;7888;46.748;8.102;2023-02-03T17:51:41;1.63;;;1.33;;
15573;SDS011;7888;46.748;8.102;2023-02-03T17:54:06;1.47;;;1.37;;
15573;SDS011;7888;46.748;8.102;2023-02-03T17:56:33;3.13;;;1.63;;
15573;SDS011;7888;46.748;8.102;2023-02-03T17:59:00;2.00;;;1.47;;
15573;SDS011;7888;46.748;8.102;2023-02-03T18:01:28;4.87;;;2.87;;
15573;SDS011;7888;46.748;8.102;2023-02-03T18:04:05;3.63;;;2.20;;
15573;SDS011;7888;46.748;8.102;2023-02-03T18:06:34;3.10;;;1.90;;
15573;SDS011;7888;46.748;8.102;2023-02-03T18:09:01;5.27;;;2.33;;